Time;durP1;ratioP1;P1;durP2;ratioP2;P2;SDS_P1;SDS_P2;PMS_P1;PMS_P2;Temp;Humidity;BMP_temperature;BMP_pressure;BME280_temperature;BME280_humidity;BME280_pressure;Samples;Min_cycle;Max_cycle;Signal;HPM_P1;HPM_P2
2022/04/03 00:01:45;;;;;;;4.05;1.52;;;;;;;;;;4992219;28;20065;-59
2022/04/03 00:04:11;;;;;;;2.58;1.40;;;;;;;;;;4993383;28;20057;-64
2022/04/03 00:06:40;;;;;;;4.32;1.35;;;;;;;;;;4979532;28;20065;-65
2022/04/03 00:09:07;;;;;;;5.03;1.42;;;;;;;;;;4991948;28;20050;-62
2022/04/03 00:11:33;;;;;;;7.53;1.90;;;;;;;;;;4972058;28;20062;-56
2022/04/03 00:14:00;;;;;;;4.40;1.77;;;;;;;;;;4971873;28;20141;-55
2022/04/03 00:16:27;;;;;;;3.13;1.58;;;;;;;;;;4983667;28;20051;-59
2022/04/03 00:18:54;;;;;;;4.75;1.70;;;;;;;;;;4990735;28;20061;-58
2022/04/03 00:21:20;;;;;;;6.72;1.70;;;;;;;;;;4976642;28;20077;-55
2022/04/03 00:23:49;;;;;;;3.65;1.65;;;;;;;;;;4973053;28;20055;-58
2022/04/03 00:26:15;;;;;;;3.90;1.65;;;;;;;;;;4976101;28;20050;-57
2022/04/03 00:28:42;;;;;;;4.13;1.60;;;;;;;;;;4991163;28;20140;-55
2022/04/03 00:31:09;;;;;;;4.45;1.63;;;;;;;;;;4981180;28;20046;-57
2022/04/03 00:33:36;;;;;;;5.20;1.65;;;;;;;;;;4971416;28;20051;-61
2022/04/03 00:36:03;;;;;;;4.10;1.58;;;;;;;;;;4971548;28;20050;-62
2022/04/03 00:38:30;;;;;;;3.78;1.80;;;;;;;;;;4990667;28;20054;-65
2022/04/03 00:40:58;;;;;;;3.83;1.52;;;;;;;;;;4985035;28;20173;-64
2022/04/03 00:43:24;;;;;;;4.32;1.65;;;;;;;;;;4970532;28;20054;-60
2022/04/03 00:45:52;;;;;;;3.42;1.50;;;;;;;;;;4971195;28;20061;-54
2022/04/03 00:48:19;;;;;;;5.90;2.00;;;;;;;;;;4967806;28;20057;-58
2022/04/03 00:50:45;;;;;;;4.57;1.73;;;;;;;;;;4970876;28;20062;-58
2022/04/03 00:53:12;;;;;;;4.22;1.75;;;;;;;;;;4968058;28;20066;-55
2022/04/03 00:55:40;;;;;;;4.32;1.58;;;;;;;;;;4971284;28;20054;-53
2022/04/03 00:58:09;;;;;;;4.57;1.90;;;;;;;;;;4969330;28;20063;-60
2022/04/03 01:00:35;;;;;;;;;;;;;;;;;;4988126;28;20059;-56
2022/04/03 01:03:04;;;;;;;4.20;1.70;;;;;;;;;;4968098;28;19938;-56
2022/04/03 01:05:31;;;;;;;4.78;1.85;;;;;;;;;;4990142;28;20062;-58
2022/04/03 01:07:57;;;;;;;4.20;1.58;;;;;;;;;;5002624;28;20042;-56
2022/04/03 01:10:24;;;;;;;6.47;1.67;;;;;;;;;;4989818;28;20047;-62
2022/04/03 01:12:51;;;;;;;6.07;1.90;;;;;;;;;;4979901;28;20058;-55
2022/04/03 01:15:19;;;;;;;5.55;2.28;;;;;;;;;;4961030;28;20051;-55
2022/04/03 01:17:47;;;;;;;4.65;1.77;;;;;;;;;;4962053;28;20079;-56
2022/04/03 01:20:14;;;;;;;5.15;1.77;;;;;;;;;;4950875;28;20051;-58
2022/04/03 01:22:41;;;;;;;4.68;1.85;;;;;;;;;;4947892;28;20051;-53
2022/04/03 01:25:10;;;;;;;5.53;1.70;;;;;;;;;;4951408;28;20051;-63
2022/04/03 01:27:38;;;;;;;5.63;2.15;;;;;;;;;;4947796;28;20067;-56
2022/04/03 01:30:06;;;;;;;5.75;2.00;;;;;;;;;;4952541;28;20051;-63
2022/04/03 01:32:33;;;;;;;4.32;1.70;;;;;;;;;;4953483;28;20058;-58
2022/04/03 01:34:59;;;;;;;5.75;2.08;;;;;;;;;;4966419;28;20039;-54
2022/04/03 01:37:28;;;;;;;4.32;2.15;;;;;;;;;;5003163;28;20051;-56
2022/04/03 01:39:54;;;;;;;5.47;1.95;;;;;;;;;;4965296;28;20054;-59
2022/04/03 01:42:22;;;;;;;5.78;2.03;;;;;;;;;;4970736;28;20054;-53
2022/04/03 01:44:49;;;;;;;3.88;1.77;;;;;;;;;;4982855;28;20050;-57
2022/04/03 01:47:16;;;;;;;5.78;1.95;;;;;;;;;;4986740;28;20063;-52
2022/04/03 01:49:43;;;;;;;9.68;2.50;;;;;;;;;;4974680;28;20121;-53
2022/04/03 01:52:10;;;;;;;6.05;2.00;;;;;;;;;;4970121;28;20074;-61
2022/04/03 01:54:37;;;;;;;7.10;2.08;;;;;;;;;;4965931;28;20141;-58
2022/04/03 01:57:03;;;;;;;4.53;2.00;;;;;;;;;;4970476;28;20054;-55
2022/04/03 01:59:32;;;;;;;4.25;2.00;;;;;;;;;;4966374;28;20055;-52
2022/04/03 02:01:58;;;;;;;;;;;;;;;;;;4967602;28;20137;-63
2022/04/03 02:04:25;;;;;;;3.92;1.83;;;;;;;;;;4959873;28;19925;-59
2022/04/03 02:06:52;;;;;;;6.70;2.10;;;;;;;;;;4961963;28;20118;-60
2022/04/03 02:09:19;;;;;;;4.75;1.83;;;;;;;;;;4953129;28;20058;-53
2022/04/03 02:11:46;;;;;;;5.88;2.10;;;;;;;;;;4957886;28;20043;-61
2022/04/03 02:14:12;;;;;;;4.95;1.92;;;;;;;;;;4985452;28;20143;-61
2022/04/03 02:16:40;;;;;;;5.82;1.98;;;;;;;;;;4982347;28;20050;-57
2022/04/03 02:19:09;;;;;;;5.07;1.90;;;;;;;;;;4970398;28;20054;-54
2022/04/03 02:21:37;;;;;;;6.18;1.98;;;;;;;;;;4981396;28;20074;-57
2022/04/03 02:24:03;;;;;;;4.47;2.25;;;;;;;;;;4988062;28;20056;-58
2022/04/03 02:26:30;;;;;;;7.38;2.10;;;;;;;;;;4982393;28;20058;-57
2022/04/03 02:28:57;;;;;;;6.13;2.00;;;;;;;;;;4986306;28;20050;-56
2022/04/03 02:31:23;;;;;;;5.85;2.10;;;;;;;;;;4982900;28;20054;-56
2022/04/03 02:33:51;;;;;;;5.20;1.92;;;;;;;;;;4986829;28;20050;-59
2022/04/03 02:36:18;;;;;;;10.50;2.40;;;;;;;;;;4981065;28;20138;-56
2022/04/03 02:38:46;;;;;;;5.20;2.25;;;;;;;;;;4984247;28;20297;-59
2022/04/03 02:41:14;;;;;;;6.30;2.13;;;;;;;;;;4982783;28;20062;-63
2022/04/03 02:43:40;;;;;;;6.43;2.17;;;;;;;;;;4986541;28;20058;-61
2022/04/03 02:46:07;;;;;;;6.25;2.00;;;;;;;;;;4981713;28;20106;-59
2022/04/03 02:48:34;;;;;;;4.13;1.75;;;;;;;;;;4986686;28;20118;-63
2022/04/03 02:51:04;;;;;;;7.32;2.22;;;;;;;;;;4982681;28;20149;-59
2022/04/03 02:53:30;;;;;;;4.68;2.00;;;;;;;;;;4987914;28;20046;-63
2022/04/03 02:55:57;;;;;;;4.80;1.63;;;;;;;;;;4989206;28;20054;-64
2022/04/03 02:58:24;;;;;;;5.95;2.20;;;;;;;;;;4982913;28;20073;-59
2022/04/03 03:03:53;;;;;;;4.80;1.98;;;;;;;;;;5024555;23;20108;-53
2022/04/03 03:06:21;;;;;;;5.72;2.13;;;;;;;;;;5022041;28;20362;-63
2022/04/03 03:08:48;;;;;;;5.60;2.17;;;;;;;;;;5038427;28;20052;-64
2022/04/03 03:11:16;;;;;;;7.55;1.92;;;;;;;;;;5029509;28;20079;-54
2022/04/03 03:13:42;;;;;;;6.70;2.40;;;;;;;;;;5038217;28;20040;-54
2022/04/03 03:16:09;;;;;;;4.97;1.90;;;;;;;;;;5041318;28;20341;-58
2022/04/03 03:18:37;;;;;;;4.93;2.25;;;;;;;;;;5040343;28;20053;-59
2022/04/03 03:21:06;;;;;;;5.82;2.35;;;;;;;;;;5028386;28;20140;-64
2022/04/03 03:23:34;;;;;;;7.55;2.20;;;;;;;;;;5039234;28;20505;-58
2022/04/03 03:26:01;;;;;;;8.50;2.70;;;;;;;;;;5047021;28;20053;-57
2022/04/03 03:28:27;;;;;;;5.65;2.28;;;;;;;;;;5002109;28;20107;-52
2022/04/03 03:30:54;;;;;;;3.70;1.75;;;;;;;;;;5008011;28;20046;-55
2022/04/03 03:33:20;;;;;;;5.43;1.83;;;;;;;;;;5002126;28;20088;-58
2022/04/03 03:35:47;;;;;;;4.68;1.92;;;;;;;;;;5006540;28;20045;-57
2022/04/03 03:38:15;;;;;;;7.45;2.25;;;;;;;;;;5008778;28;20084;-54
2022/04/03 03:40:44;;;;;;;5.90;2.28;;;;;;;;;;5003134;28;20050;-53
2022/04/03 03:43:11;;;;;;;4.57;2.10;;;;;;;;;;5020850;28;20053;-50
2022/04/03 03:45:37;;;;;;;5.65;2.30;;;;;;;;;;5003761;28;20049;-53
2022/04/03 03:48:06;;;;;;;9.20;2.55;;;;;;;;;;5008606;28;20140;-55
2022/04/03 03:50:32;;;;;;;6.75;2.28;;;;;;;;;;5002308;28;20108;-54
2022/04/03 03:52:59;;;;;;;4.82;1.95;;;;;;;;;;5012168;28;20110;-54
2022/04/03 03:55:26;;;;;;;5.63;2.17;;;;;;;;;;5017402;28;20057;-60
2022/04/03 03:57:54;;;;;;;6.75;2.15;;;;;;;;;;5023452;28;20162;-60
2022/04/03 04:00:20;;;;;;;6.15;2.42;;;;;;;;;;5020890;28;20056;-54
2022/04/03 04:02:47;;;;;;;7.50;2.20;;;;;;;;;;5009944;28;20064;-56
2022/04/03 04:05:13;;;;;;;7.50;2.10;;;;;;;;;;5009312;28;20154;-54
2022/04/03 04:07:41;;;;;;;6.15;2.28;;;;;;;;;;5040487;28;20064;-63
2022/04/03 04:10:08;;;;;;;4.25;1.88;;;;;;;;;;5032135;28;20138;-58
2022/04/03 04:12:35;;;;;;;6.82;2.50;;;;;;;;;;5026394;28;20156;-60
2022/04/03 04:15:03;;;;;;;4.25;1.92;;;;;;;;;;5043989;28;20044;-62
2022/04/03 04:17:34;;;;;;;6.45;2.00;;;;;;;;;;5029795;28;20057;-64
2022/04/03 04:20:00;;;;;;;5.55;2.15;;;;;;;;;;5032015;28;20057;-63
2022/04/03 04:22:27;;;;;;;6.63;2.20;;;;;;;;;;5055209;28;20055;-64
2022/04/03 04:24:53;;;;;;;4.40;2.22;;;;;;;;;;5050339;28;20106;-59
2022/04/03 04:27:20;;;;;;;6.90;2.13;;;;;;;;;;5045873;28;20056;-59
2022/04/03 04:29:47;;;;;;;7.60;2.47;;;;;;;;;;5049133;28;20060;-56
2022/04/03 04:32:16;;;;;;;6.03;2.00;;;;;;;;;;5045453;28;20106;-64
2022/04/03 04:34:42;;;;;;;6.15;2.40;;;;;;;;;;5049769;28;20062;-54
2022/04/03 04:37:09;;;;;;;6.38;2.05;;;;;;;;;;5039831;28;20049;-58
2022/04/03 04:39:37;;;;;;;5.65;2.15;;;;;;;;;;5029835;28;20539;-57
2022/04/03 04:42:03;;;;;;;4.80;2.10;;;;;;;;;;5025122;28;20143;-51
2022/04/03 04:44:30;;;;;;;6.47;1.98;;;;;;;;;;5033060;28;20063;-58
2022/04/03 04:46:56;;;;;;;7.10;2.10;;;;;;;;;;5029966;28;20114;-58
2022/04/03 04:49:25;;;;;;;3.95;1.58;;;;;;;;;;5033766;28;20044;-54
2022/04/03 04:51:51;;;;;;;4.45;2.03;;;;;;;;;;5033492;28;20049;-59
2022/04/03 04:54:18;;;;;;;6.13;2.08;;;;;;;;;;5040806;28;20064;-56
2022/04/03 04:56:44;;;;;;;5.15;2.10;;;;;;;;;;5049926;28;20045;-57
2022/04/03 04:59:11;;;;;;;5.22;2.15;;;;;;;;;;5031925;28;20064;-54
2022/04/03 05:01:38;;;;;;;6.20;2.33;;;;;;;;;;5049111;28;20137;-58
2022/04/03 05:04:05;;;;;;;4.97;1.85;;;;;;;;;;5029336;28;20118;-56
2022/04/03 05:06:35;;;;;;;5.68;1.92;;;;;;;;;;5031062;28;20103;-49
2022/04/03 05:09:02;;;;;;;3.92;1.60;;;;;;;;;;5032055;28;20060;-54
2022/04/03 05:11:29;;;;;;;4.80;1.85;;;;;;;;;;5033623;28;20072;-55
2022/04/03 05:13:55;;;;;;;6.90;2.20;;;;;;;;;;5028301;28;20048;-57
2022/04/03 05:16:22;;;;;;;6.32;2.00;;;;;;;;;;5034560;28;20107;-60
2022/04/03 05:18:49;;;;;;;5.70;2.05;;;;;;;;;;5030771;28;20048;-54
2022/04/03 05:21:15;;;;;;;5.40;2.22;;;;;;;;;;5034626;28;20405;-56
2022/04/03 05:23:43;;;;;;;5.75;1.60;;;;;;;;;;5027062;28;20049;-53
2022/04/03 05:26:11;;;;;;;5.30;1.90;;;;;;;;;;5005688;28;20057;-56
2022/04/03 05:28:38;;;;;;;3.90;1.65;;;;;;;;;;5010020;28;20055;-56
2022/04/03 05:31:04;;;;;;;8.10;1.95;;;;;;;;;;5013172;28;20054;-56
2022/04/03 05:33:31;;;;;;;5.22;1.98;;;;;;;;;;5013484;28;20045;-53
2022/04/03 05:35:58;;;;;;;4.03;1.70;;;;;;;;;;5029023;28;20121;-58
2022/04/03 05:38:25;;;;;;;9.05;1.90;;;;;;;;;;5030499;28;20107;-57
2022/04/03 05:40:53;;;;;;;4.63;1.80;;;;;;;;;;5033217;28;20048;-53
2022/04/03 05:43:20;;;;;;;5.10;1.70;;;;;;;;;;5048196;28;20122;-57
2022/04/03 05:45:47;;;;;;;6.82;1.65;;;;;;;;;;5024408;28;20103;-60
2022/04/03 05:48:13;;;;;;;3.80;1.67;;;;;;;;;;5048266;28;20059;-58
2022/04/03 05:50:40;;;;;;;4.78;1.60;;;;;;;;;;5044462;28;20052;-59
2022/04/03 05:53:07;;;;;;;4.68;1.70;;;;;;;;;;5031976;28;20045;-53
2022/04/03 05:55:34;;;;;;;3.45;1.67;;;;;;;;;;5001787;28;20049;-56
2022/04/03 05:58:02;;;;;;;4.15;1.75;;;;;;;;;;5012109;28;20060;-55
2022/04/03 06:00:29;;;;;;;4.07;1.80;;;;;;;;;;5014033;28;20045;-55
2022/04/03 06:02:58;;;;;;;3.63;1.50;;;;;;;;;;5032101;28;20069;-57
2022/04/03 06:05:25;;;;;;;4.53;1.73;;;;;;;;;;5024267;28;20139;-58
2022/04/03 06:07:52;;;;;;;5.53;1.80;;;;;;;;;;5019794;28;20048;-63
2022/04/03 06:10:20;;;;;;;4.78;1.73;;;;;;;;;;5029406;28;20064;-59
2022/04/03 06:12:57;;;;;;;4.75;1.60;;;;;;;;;;5012064;28;20076;-58
2022/04/03 06:15:25;;;;;;;4.43;1.83;;;;;;;;;;5022675;28;20048;-61
2022/04/03 06:17:53;;;;;;;3.60;1.80;;;;;;;;;;5011889;28;20050;-59
2022/04/03 06:20:19;;;;;;;4.55;1.75;;;;;;;;;;5011031;28;20042;-62
2022/04/03 06:22:46;;;;;;;4.40;1.70;;;;;;;;;;5025895;28;20080;-59
2022/04/03 06:25:14;;;;;;;4.68;1.75;;;;;;;;;;5031462;28;20057;-56
2022/04/03 06:27:42;;;;;;;4.33;1.70;;;;;;;;;;5012251;28;20132;-59
2022/04/03 06:30:09;;;;;;;5.47;1.75;;;;;;;;;;5027962;28;20499;-59
2022/04/03 06:32:37;;;;;;;6.80;2.45;;;;;;;;;;5022145;28;20060;-56
2022/04/03 06:35:04;;;;;;;5.63;2.22;;;;;;;;;;5031597;28;20114;-54
2022/04/03 06:37:31;;;;;;;5.35;2.30;;;;;;;;;;5017217;28;20069;-61
2022/04/03 06:39:58;;;;;;;6.53;2.65;;;;;;;;;;5012399;28;20452;-53
2022/04/03 06:42:25;;;;;;;7.63;2.03;;;;;;;;;;5008553;28;20049;-57
2022/04/03 06:44:52;;;;;;;9.27;1.80;;;;;;;;;;5014059;28;20065;-62
2022/04/03 06:47:18;;;;;;;4.30;2.08;;;;;;;;;;5009508;28;20057;-58
2022/04/03 06:49:46;;;;;;;5.90;2.00;;;;;;;;;;5011239;28;20152;-57
2022/04/03 06:52:13;;;;;;;6.35;2.05;;;;;;;;;;5012623;28;20052;-58
2022/04/03 06:54:40;;;;;;;6.22;2.30;;;;;;;;;;5048540;28;20124;-57
2022/04/03 06:57:07;;;;;;;6.90;2.20;;;;;;;;;;5044792;28;20059;-60
2022/04/03 06:59:38;;;;;;;5.20;1.95;;;;;;;;;;5032336;28;20056;-57
2022/04/03 07:02:05;;;;;;;5.53;2.00;;;;;;;;;;5022925;28;20049;-56
2022/04/03 07:04:32;;;;;;;10.18;2.42;;;;;;;;;;5016720;28;20065;-54
2022/04/03 07:07:00;;;;;;;6.88;2.78;;;;;;;;;;5024344;28;20053;-60
2022/04/03 07:09:33;;;;;;;5.45;2.45;;;;;;;;;;5018481;28;20049;-57
2022/04/03 07:12:00;;;;;;;6.32;2.25;;;;;;;;;;5029081;28;20161;-56
2022/04/03 07:14:26;;;;;;;7.53;2.78;;;;;;;;;;5019085;28;20136;-60
2022/04/03 07:16:53;;;;;;;9.05;3.00;;;;;;;;;;5046044;28;20096;-57
2022/04/03 07:19:20;;;;;;;8.27;2.58;;;;;;;;;;5037471;28;20054;-56
2022/04/03 07:21:47;;;;;;;5.57;2.45;;;;;;;;;;5042186;28;20117;-57
2022/04/03 07:24:15;;;;;;;7.25;3.20;;;;;;;;;;5044338;28;20068;-54
2022/04/03 07:26:42;;;;;;;6.70;2.33;;;;;;;;;;5033638;28;20061;-56
2022/04/03 07:29:10;;;;;;;5.75;2.35;;;;;;;;;;5027645;28;20049;-58
2022/04/03 07:31:36;;;;;;;6.22;2.67;;;;;;;;;;5008836;28;20076;-52
2022/04/03 07:34:03;;;;;;;9.80;3.00;;;;;;;;;;5043882;28;20373;-57
2022/04/03 07:36:30;;;;;;;6.40;2.47;;;;;;;;;;5021503;28;20049;-53
2022/04/03 07:38:58;;;;;;;6.80;2.58;;;;;;;;;;5041025;28;20054;-61
2022/04/03 07:41:27;;;;;;;6.00;2.38;;;;;;;;;;5043168;28;20149;-59
2022/04/03 07:43:54;;;;;;;5.80;2.63;;;;;;;;;;5014487;28;20111;-62
2022/04/03 07:46:20;;;;;;;7.43;2.63;;;;;;;;;;5027701;28;20045;-56
2022/04/03 07:48:48;;;;;;;7.72;2.90;;;;;;;;;;5009726;28;20053;-63
2022/04/03 07:51:15;;;;;;;4.80;1.92;;;;;;;;;;5023980;28;20053;-61
2022/04/03 07:53:41;;;;;;;5.65;2.30;;;;;;;;;;5017825;28;20061;-62
2022/04/03 07:56:08;;;;;;;4.95;1.88;;;;;;;;;;5036322;28;20046;-58
2022/04/03 07:58:36;;;;;;;8.70;2.03;;;;;;;;;;5022571;28;20080;-59
2022/04/03 08:01:03;;;;;;;3.17;1.58;;;;;;;;;;5006579;28;20461;-60
2022/04/03 08:03:30;;;;;;;3.20;1.52;;;;;;;;;;5020874;28;20064;-54
2022/04/03 08:05:56;;;;;;;5.85;1.85;;;;;;;;;;5028007;28;20053;-55
2022/04/03 08:08:23;;;;;;;5.55;1.70;;;;;;;;;;5023940;28;20107;-58
2022/04/03 08:10:49;;;;;;;3.83;1.30;;;;;;;;;;5026186;28;20107;-58
2022/04/03 08:13:16;;;;;;;2.42;1.25;;;;;;;;;;5030645;28;20053;-57
2022/04/03 08:15:44;;;;;;;3.03;1.48;;;;;;;;;;5023265;28;20053;-55
2022/04/03 08:18:11;;;;;;;3.92;1.90;;;;;;;;;;5029828;28;20160;-52
2022/04/03 08:20:38;;;;;;;5.78;1.90;;;;;;;;;;5026921;28;20059;-53
2022/04/03 08:23:05;;;;;;;4.13;1.85;;;;;;;;;;5018137;28;20085;-53
2022/04/03 08:25:32;;;;;;;4.80;2.17;;;;;;;;;;5027203;28;20053;-60
2022/04/03 08:28:00;;;;;;;4.35;1.60;;;;;;;;;;5038655;28;20585;-63
2022/04/03 08:30:27;;;;;;;3.80;1.88;;;;;;;;;;5025168;28;20052;-56
2022/04/03 08:32:56;;;;;;;5.05;2.15;;;;;;;;;;5022257;28;20062;-52
2022/04/03 08:35:24;;;;;;;4.88;2.00;;;;;;;;;;5025893;28;20058;-56
2022/04/03 08:37:51;;;;;;;4.82;2.13;;;;;;;;;;5046522;28;20077;-53
2022/04/03 08:40:18;;;;;;;4.30;1.95;;;;;;;;;;5041565;28;20049;-54
2022/04/03 08:42:45;;;;;;;9.48;3.63;;;;;;;;;;5047107;28;20045;-56
2022/04/03 08:45:12;;;;;;;13.13;4.53;;;;;;;;;;5020207;28;20140;-54
2022/04/03 08:47:42;;;;;;;6.18;2.30;;;;;;;;;;5046476;28;20049;-61
2022/04/03 08:50:12;;;;;;;4.50;1.67;;;;;;;;;;5039660;28;20072;-58
2022/04/03 08:52:39;;;;;;;4.57;1.52;;;;;;;;;;5045450;28;20061;-55
2022/04/03 08:55:06;;;;;;;5.80;1.30;;;;;;;;;;5040260;28;20136;-54
2022/04/03 08:57:33;;;;;;;5.90;1.80;;;;;;;;;;5045361;28;20061;-56
2022/04/03 09:00:00;;;;;;;2.65;1.40;;;;;;;;;;5020442;28;20085;-56
2022/04/03 09:02:27;;;;;;;2.78;1.23;;;;;;;;;;5038603;28;20064;-52
2022/04/03 09:04:54;;;;;;;4.78;1.40;;;;;;;;;;5000933;28;20128;-62
2022/04/03 09:07:22;;;;;;;4.28;1.50;;;;;;;;;;5008149;28;20137;-61
2022/04/03 09:09:56;;;;;;;2.03;1.00;;;;;;;;;;5000852;28;20057;-56
2022/04/03 09:12:23;;;;;;;3.13;1.20;;;;;;;;;;5006801;28;20058;-62
2022/04/03 09:14:52;;;;;;;2.33;1.00;;;;;;;;;;4999519;28;20050;-56
2022/04/03 09:17:42;;;;;;;2.72;1.10;;;;;;;;;;5005603;28;20060;-58
2022/04/03 09:20:12;;;;;;;3.63;0.93;;;;;;;;;;4992132;28;20066;-63
2022/04/03 09:22:42;;;;;;;2.20;1.00;;;;;;;;;;5005247;28;20061;-60
2022/04/03 09:25:10;;;;;;;3.42;1.30;;;;;;;;;;5019839;28;20061;-59
2022/04/03 09:27:46;;;;;;;1.88;1.13;;;;;;;;;;5008955;28;20089;-53
2022/04/03 09:30:12;;;;;;;0.95;0.68;;;;;;;;;;5000622;28;20042;-57
2022/04/03 09:32:46;;;;;;;2.35;1.10;;;;;;;;;;5007985;28;20049;-57
2022/04/03 09:35:13;;;;;;;2.47;1.08;;;;;;;;;;5006551;28;20076;-60
2022/04/03 09:38:01;;;;;;;4.00;1.13;;;;;;;;;;5002016;28;20188;-55
2022/04/03 09:40:30;;;;;;;6.22;1.85;;;;;;;;;;5004530;28;20074;-60
2022/04/03 09:43:12;;;;;;;7.55;1.55;;;;;;;;;;5005721;28;20063;-60
2022/04/03 09:45:43;;;;;;;7.63;2.10;;;;;;;;;;5023252;28;20054;-58
2022/04/03 09:48:22;;;;;;;2.83;1.40;;;;;;;;;;5003349;28;20045;-56
2022/04/03 09:50:56;;;;;;;5.03;0.95;;;;;;;;;;5005813;28;20062;-54
2022/04/03 09:53:24;;;;;;;3.30;0.98;;;;;;;;;;5004974;28;20054;-55
2022/04/03 09:55:51;;;;;;;5.57;1.15;;;;;;;;;;5005138;28;20065;-56
2022/04/03 09:58:17;;;;;;;1.65;0.98;;;;;;;;;;5000875;28;20069;-56
2022/04/03 10:00:44;;;;;;;2.15;0.77;;;;;;;;;;5006695;28;20057;-57
2022/04/03 10:03:12;;;;;;;1.85;0.60;;;;;;;;;;5014453;28;20053;-63
2022/04/03 10:05:39;;;;;;;2.87;1.07;;;;;;;;;;5044597;28;20151;-56
2022/04/03 10:08:07;;;;;;;3.58;1.20;;;;;;;;;;5037782;28;20081;-53
2022/04/03 10:10:36;;;;;;;1.52;0.63;;;;;;;;;;5043374;28;20120;-55
2022/04/03 10:13:02;;;;;;;;;;;;;;;;;;5015956;28;20053;-60
2022/04/03 10:15:29;;;;;;;2.42;0.50;;;;;;;;;;5023786;28;19971;-55
2022/04/03 10:17:56;;;;;;;1.77;0.70;;;;;;;;;;5019474;28;20065;-56
2022/04/03 10:20:25;;;;;;;1.95;0.75;;;;;;;;;;5044518;28;20049;-59
2022/04/03 10:22:51;;;;;;;;;;;;;;;;;;5038454;28;20049;-53
2022/04/03 10:25:21;;;;;;;4.22;0.70;;;;;;;;;;5024764;28;19925;-57
2022/04/03 10:27:50;;;;;;;4.10;0.77;;;;;;;;;;5037809;28;20056;-57
2022/04/03 10:30:17;;;;;;;1.95;0.85;;;;;;;;;;5043267;28;20152;-55
2022/04/03 10:32:56;;;;;;;1.27;0.75;;;;;;;;;;5035686;28;20053;-55
2022/04/03 10:35:23;;;;;;;2.17;0.85;;;;;;;;;;5026413;28;20068;-59
2022/04/03 10:37:59;;;;;;;2.90;0.90;;;;;;;;;;5019248;28;20049;-60
2022/04/03 10:40:29;;;;;;;3.00;0.93;;;;;;;;;;5022812;28;20049;-54
2022/04/03 10:43:01;;;;;;;5.00;0.80;;;;;;;;;;5037371;28;20115;-58
2022/04/03 10:45:28;;;;;;;1.50;0.80;;;;;;;;;;5042312;28;20057;-58
2022/04/03 10:48:16;;;;;;;4.77;1.87;;;;;;;;;;5028420;28;20053;-53
2022/04/03 10:50:56;;;;;;;6.20;1.77;;;;;;;;;;5026583;28;20057;-58
2022/04/03 10:53:24;;;;;;;4.15;1.08;;;;;;;;;;5035623;28;20077;-56
2022/04/03 10:55:54;;;;;;;1.15;0.80;;;;;;;;;;5008559;28;20058;-60
2022/04/03 10:58:23;;;;;;;3.97;0.90;;;;;;;;;;5008839;28;20076;-61
2022/04/03 11:00:50;;;;;;;4.38;0.77;;;;;;;;;;5002204;28;20050;-57
2022/04/03 11:03:44;;;;;;;3.92;1.15;;;;;;;;;;5006633;28;20058;-58
2022/04/03 11:06:23;;;;;;;4.90;0.75;;;;;;;;;;4986463;28;20091;-55
2022/04/03 11:09:08;;;;;;;5.30;0.90;;;;;;;;;;5026971;28;20072;-54
2022/04/03 11:11:36;;;;;;;3.30;0.95;;;;;;;;;;5022734;28;20049;-56
2022/04/03 11:14:06;;;;;;;2.30;1.10;;;;;;;;;;5027838;28;20048;-56
2022/04/03 11:16:49;;;;;;;3.78;0.93;;;;;;;;;;5033161;28;20104;-54
2022/04/03 11:19:34;;;;;;;2.42;1.00;;;;;;;;;;5027147;28;20053;-58
2022/04/03 11:22:18;;;;;;;5.53;1.10;;;;;;;;;;5068568;27;20455;-56
2022/04/03 11:24:45;;;;;;;2.78;1.02;;;;;;;;;;5064527;28;20111;-59
2022/04/03 11:27:13;;;;;;;2.00;1.10;;;;;;;;;;5050362;28;20053;-50
2022/04/03 11:29:39;;;;;;;4.63;1.35;;;;;;;;;;5065163;28;20045;-51
2022/04/03 11:32:07;;;;;;;4.90;1.10;;;;;;;;;;5060953;28;20053;-59
2022/04/03 11:34:34;;;;;;;3.92;1.73;;;;;;;;;;5045445;28;20060;-63
2022/04/03 11:37:02;;;;;;;1.70;1.02;;;;;;;;;;5046031;28;20123;-52
2022/04/03 11:39:36;;;;;;;2.80;1.10;;;;;;;;;;5043870;28;20053;-52
2022/04/03 11:42:05;;;;;;;5.78;1.20;;;;;;;;;;5063796;28;20103;-59
2022/04/03 11:44:32;;;;;;;7.68;1.23;;;;;;;;;;5051492;28;20048;-61
2022/04/03 11:47:00;;;;;;;3.67;1.65;;;;;;;;;;5063958;28;20056;-55
2022/04/03 11:49:29;;;;;;;2.33;1.27;;;;;;;;;;5060194;28;20110;-61
2022/04/03 11:51:58;;;;;;;4.03;1.58;;;;;;;;;;5057380;28;20149;-59
2022/04/03 11:54:25;;;;;;;1.98;0.85;;;;;;;;;;5043350;28;20057;-59
2022/04/03 11:56:59;;;;;;;4.13;1.08;;;;;;;;;;5035980;28;20064;-57
2022/04/03 11:59:26;;;;;;;2.40;1.10;;;;;;;;;;5035414;28;20061;-58
2022/04/03 12:01:53;;;;;;;1.45;0.80;;;;;;;;;;5016663;28;20068;-56
2022/04/03 12:04:22;;;;;;;2.47;0.80;;;;;;;;;;5032627;28;20050;-58
2022/04/03 12:06:50;;;;;;;2.88;1.10;;;;;;;;;;5015307;28;20137;-56
2022/04/03 12:09:18;;;;;;;3.45;1.00;;;;;;;;;;5056039;28;20049;-60
2022/04/03 12:11:48;;;;;;;1.45;0.60;;;;;;;;;;5021165;28;20049;-64
2022/04/03 12:14:24;;;;;;;1.35;0.65;;;;;;;;;;5020410;28;20096;-58
2022/04/03 12:16:55;;;;;;;2.30;0.93;;;;;;;;;;5073005;28;20148;-58
2022/04/03 12:19:22;;;;;;;0.77;0.50;;;;;;;;;;5039905;28;20052;-57
2022/04/03 12:21:51;;;;;;;2.13;0.90;;;;;;;;;;5043264;28;20073;-55
2022/04/03 12:24:18;;;;;;;1.25;0.52;;;;;;;;;;5035731;28;20168;-58
2022/04/03 12:26:45;;;;;;;2.80;0.60;;;;;;;;;;5023399;28;20064;-55
2022/04/03 12:29:12;;;;;;;2.08;0.57;;;;;;;;;;5023219;28;20054;-56
2022/04/03 12:31:41;;;;;;;1.02;0.60;;;;;;;;;;5046356;28;20056;-56
2022/04/03 12:34:12;;;;;;;1.65;0.50;;;;;;;;;;5050387;28;20055;-59
2022/04/03 12:36:43;;;;;;;0.40;0.40;;;;;;;;;;5031285;28;20058;-53
2022/04/03 12:39:30;;;;;;;1.55;0.63;;;;;;;;;;5047892;28;20080;-53
2022/04/03 12:41:57;;;;;;;1.60;1.02;;;;;;;;;;5002828;28;20066;-57
2022/04/03 12:44:23;;;;;;;0.68;0.60;;;;;;;;;;5046565;28;20136;-54
2022/04/03 12:46:51;;;;;;;3.58;0.75;;;;;;;;;;5041405;28;20140;-57
2022/04/03 12:49:18;;;;;;;1.27;0.40;;;;;;;;;;5006560;28;20069;-58
2022/04/03 12:51:45;;;;;;;2.00;0.70;;;;;;;;;;5009939;28;20108;-55
2022/04/03 12:54:12;;;;;;;1.88;0.75;;;;;;;;;;5018803;28;20149;-54
2022/04/03 12:59:22;;;;;;;4.00;0.93;;;;;;;;;;4972351;28;20058;-54
2022/04/03 13:01:53;;;;;;;4.30;0.90;;;;;;;;;;5026908;28;20561;-57
2022/04/03 13:04:30;;;;;;;3.47;1.00;;;;;;;;;;4997511;28;20054;-56
2022/04/03 13:06:57;;;;;;;5.72;1.48;;;;;;;;;;5001484;28;20570;-57
2022/04/03 13:09:24;;;;;;;2.15;1.10;;;;;;;;;;5020561;28;20100;-55
2022/04/03 13:11:51;;;;;;;4.60;0.98;;;;;;;;;;5022039;28;20057;-57
2022/04/03 13:14:21;;;;;;;2.88;0.82;;;;;;;;;;5037514;28;20054;-57
2022/04/03 13:16:48;;;;;;;3.80;0.98;;;;;;;;;;5001903;28;20053;-58
2022/04/03 13:19:16;;;;;;;1.80;0.90;;;;;;;;;;5009352;28;20057;-59
2022/04/03 13:21:43;;;;;;;2.17;0.90;;;;;;;;;;5003508;28;20054;-56
2022/04/03 13:24:10;;;;;;;5.45;1.02;;;;;;;;;;5046034;28;20069;-60
2022/04/03 13:26:37;;;;;;;1.42;0.70;;;;;;;;;;5042961;28;20045;-62
2022/04/03 13:29:05;;;;;;;1.33;0.60;;;;;;;;;;5021319;28;20454;-58
2022/04/03 13:31:32;;;;;;;0.95;0.70;;;;;;;;;;5027099;28;20058;-58
2022/04/03 13:33:59;;;;;;;1.35;0.77;;;;;;;;;;5017237;28;20050;-62
2022/04/03 13:36:27;;;;;;;2.25;0.60;;;;;;;;;;5026685;28;20081;-55
2022/04/03 13:38:55;;;;;;;0.93;0.70;;;;;;;;;;5018355;28;20751;-55
2022/04/03 13:41:21;;;;;;;3.33;1.02;;;;;;;;;;5045954;28;20103;-61
2022/04/03 13:43:48;;;;;;;2.28;0.95;;;;;;;;;;5044629;28;20068;-56
2022/04/03 13:46:15;;;;;;;3.60;1.00;;;;;;;;;;5031136;28;20076;-55
2022/04/03 13:48:42;;;;;;;2.83;1.10;;;;;;;;;;5045245;28;20056;-58
2022/04/03 13:51:09;;;;;;;2.63;1.23;;;;;;;;;;5025441;28;20058;-60
2022/04/03 13:53:37;;;;;;;5.07;1.38;;;;;;;;;;5007577;28;20172;-58
2022/04/03 13:56:05;;;;;;;3.88;0.90;;;;;;;;;;5017791;28;20053;-59
2022/04/03 13:58:33;;;;;;;4.40;0.93;;;;;;;;;;5007802;28;20054;-58
2022/04/03 14:01:01;;;;;;;1.58;0.80;;;;;;;;;;5003293;28;20483;-58
2022/04/03 14:03:28;;;;;;;2.78;0.88;;;;;;;;;;5002041;28;20050;-61
2022/04/03 14:05:55;;;;;;;1.10;0.90;;;;;;;;;;5009667;28;20096;-56
2022/04/03 14:08:22;;;;;;;2.10;0.95;;;;;;;;;;5004157;28;20057;-57
2022/04/03 14:10:51;;;;;;;1.92;0.80;;;;;;;;;;5027964;28;20057;-56
2022/04/03 14:13:20;;;;;;;2.33;0.63;;;;;;;;;;5016027;28;20069;-56
2022/04/03 14:15:46;;;;;;;1.58;0.80;;;;;;;;;;5025161;28;20053;-54
2022/04/03 14:18:15;;;;;;;2.25;0.73;;;;;;;;;;5027801;28;20049;-57
2022/04/03 14:20:41;;;;;;;;;;;;;;;;;;5001671;28;20061;-56
2022/04/03 14:23:08;;;;;;;1.63;0.70;;;;;;;;;;4991367;28;20026;-58
2022/04/03 14:25:35;;;;;;;0.73;0.55;;;;;;;;;;5001971;28;20053;-60
2022/04/03 14:28:03;;;;;;;0.57;0.50;;;;;;;;;;5007439;28;20065;-55
2022/04/03 14:30:30;;;;;;;0.77;0.40;;;;;;;;;;5001791;28;20067;-54
2022/04/03 14:32:57;;;;;;;1.45;0.43;;;;;;;;;;5007269;28;20088;-58
2022/04/03 14:35:24;;;;;;;0.90;0.40;;;;;;;;;;5002042;28;20056;-60
2022/04/03 14:37:52;;;;;;;0.30;0.30;;;;;;;;;;5062568;28;20057;-57
2022/04/03 14:40:19;;;;;;;3.60;0.40;;;;;;;;;;5038472;28;20052;-53
2022/04/03 14:42:46;;;;;;;0.60;0.40;;;;;;;;;;5042930;28;20145;-58
2022/04/03 14:45:15;;;;;;;0.30;0.30;;;;;;;;;;5024184;28;20049;-57
2022/04/03 14:47:42;;;;;;;0.90;0.43;;;;;;;;;;5043241;28;20176;-58
2022/04/03 14:50:10;;;;;;;0.95;0.45;;;;;;;;;;5046572;28;20080;-64
2022/04/03 14:52:38;;;;;;;0.30;0.30;;;;;;;;;;5022982;28;20107;-58
2022/04/03 14:55:05;;;;;;;1.60;0.75;;;;;;;;;;5027188;28;20053;-56
2022/04/03 14:57:33;;;;;;;4.22;0.95;;;;;;;;;;5037144;28;20400;-55